26 de septiembre de 2022

Hora Código Tiempo Temp. Visibilidad Cielo nuboso Viento METAR/SPECI
11:00 a. m.
V
64 °F 40 mi - 210° 210° 3 kt METAR CYYC 261700Z 21003KT 40SM SCT300 18/05 A3023 RMK CI3 SLP241 DENSITY ALT 4500FT
10:00 a. m.
V
59 °F 40 mi - 200° 200° 3 kt METAR CYYC 261600Z 20003KT 180V240 40SM FEW300 15/05 A3023 RMK CI2 SLP244 DENSITY ALT 4100FT
9:00 a. m.
V
54 °F 40 mi - Var Var 2 kt METAR CYYC 261500Z VRB02KT 40SM FEW300 12/05 A3022 RMK CI2 SLP244 DENSITY ALT 3800FT
8:00 a. m.
V
48 °F 40 mi - 170° 170° 3 kt METAR CYYC 261400Z 17003KT 40SM FEW300 09/04 A3021 RMK CI1 SLP243
7:00 a. m.
V
46 °F 20 mi - Var 000° 0 kt METAR CYYC 261300Z 00000KT 20SM FEW230 08/03 A3020 RMK CI1 CONTRAILS SLP237
6:00 a. m.
V
45 °F 15 mi - 060° 060° 2 kt METAR CYYC 261200Z 06002KT 15SM FEW230 07/03 A3019 RMK CI1 CI TR SLP231
5:00 a. m.
V
46 °F 15 mi - Var 000° 0 kt METAR CYYC 261100Z 00000KT 15SM FEW220 08/02 A3018 RMK CI1 CI TR SLP228
4:00 a. m.
V
48 °F 15 mi - Var 000° 0 kt METAR CYYC 261000Z 00000KT 15SM FEW220 09/01 A3018 RMK CI1 CI TR SLP228
3:00 a. m.
V
46 °F 15 mi - Var Var 2 kt METAR CYYC 260900Z VRB02KT 15SM SKC 08/01 A3018 RMK SLP230
2:00 a. m.
V
46 °F 15 mi - Var 000° 0 kt METAR CYYC 260800Z 00000KT 15SM SKC 08/01 A3018 RMK SLP230
1:00 a. m.
V
48 °F 15 mi - Var 000° 0 kt METAR CYYC 260700Z 00000KT 15SM SKC 09/01 A3016 RMK SLP226
12:00 a. m.
V
50 °F 15 mi - 330° 330° 3 kt METAR CYYC 260600Z 33003KT 300V040 15SM SKC 10/01 A3016 RMK SLP227

25 de septiembre de 2022

Hora Código Tiempo Temp. Visibilidad Cielo nuboso Viento METAR/SPECI
11:00 p. m.
V
57 °F 15 mi - 180° 180° 3 kt METAR CYYC 260500Z 18003KT 15SM SKC 14/01 A3015 RMK SLP218 DENSITY ALT 4200FT
10:00 p. m.
V
61 °F 15 mi - 190° 190° 4 kt METAR CYYC 260400Z 19004KT 15SM SKC 16/00 A3014 RMK SLP215 DENSITY ALT 4300FT
9:00 p. m.
V
63 °F 15 mi - 200° 200° 4 kt METAR CYYC 260300Z 20004KT 15SM FEW230 17/M00 A3014 RMK CI1 CI TR SLP218 DENSITY ALT 4500FT
8:00 p. m.
V
64 °F 30 mi - 130° 130° 8 kt METAR CYYC 260200Z 13008KT 30SM SCT230 18/00 A3013 RMK CI3 CONTRAILS SLP218 DENSITY ALT 4600FT
7:00 p. m.
V
68 °F 15 mi 30.000 ft 130° 130° 7 - 15 kt METAR CYYC 260100Z 13007G15KT 15SM FEW200 BKN300 20/00 A3013 RMK CC1CI5 SLP216 DENSITY ALT 4800FT
6:00 p. m.
V
72 °F 15 mi 30.000 ft 150° 150° 5 kt METAR CYYC 260000Z 15005KT 080V160 15SM BKN300 22/00 A3014 RMK CI7 SLP215 DENSITY ALT 5100FT
5:00 p. m.
V
73 °F 15 mi - 050° 050° 3 kt METAR CYYC 252300Z 05003KT 010V170 15SM FEW200 SCT300 23/00 A3015 RMK CC1CI3 SLP215 DENSITY ALT 5100FT
4:00 p. m.
V
72 °F 15 mi 30.000 ft 150° 150° 4 kt METAR CYYC 252200Z 15004KT 110V200 15SM BKN300 22/00 A3016 RMK CI5 SLP224 DENSITY ALT 5000FT
3:00 p. m.
V
70 °F 15 mi 30.000 ft 130° 130° 3 kt METAR CYYC 252100Z 13003KT 080V170 15SM BKN300 21/M00 A3016 RMK CI6 SLP222 DENSITY ALT 4900FT
2:00 p. m.
V
68 °F 40 mi - 190° 190° 4 kt METAR CYYC 252000Z 19004KT 100V220 40SM FEW300 20/00 A3018 RMK CI2 SLP230 DENSITY ALT 4800FT
1:00 p. m.
V
66 °F 40 mi - 140° 140° 5 kt METAR CYYC 251900Z 14005KT 070V190 40SM FEW300 19/M00 A3021 RMK CI1 SLP241 DENSITY ALT 4600FT
12:00 p. m.
V
63 °F 40 mi - Var 000° 0 kt METAR CYYC 251800Z 00000KT 40SM FEW110 FEW300 17/M00 A3021 RMK AC1CI1 AC TR SLP244 DENSITY ALT 4300FT
11:00 a. m.
V
59 °F 40 mi - Var Var 2 kt METAR CYYC 251700Z VRB02KT 40SM FEW110 FEW300 15/M00 A3023 RMK AC1CI1 SLP250 DENSITY ALT 4100FT
10:00 a. m.
V
55 °F 40 mi 30.000 ft 340° 340° 6 kt METAR CYYC 251600Z 34006KT 40SM FEW110 BKN300 13/M01 A3024 RMK AC1CI4 SLP252 DENSITY ALT 3900FT
9:00 a. m.
V
48 °F 40 mi - 340° 340° 4 kt METAR CYYC 251500Z 34004KT 40SM FEW110 SCT300 09/01 A3025 RMK AC2CI1 SLP262
8:00 a. m.
V
45 °F 40 mi 11.000 ft Var Var 2 kt METAR CYYC 251400Z VRB02KT 40SM BKN110 BKN300 07/M00 A3024 RMK AC5CI1 SLP258
7:00 a. m.
V
43 °F 20 mi - Var 000° 0 kt METAR CYYC 251300Z 00000KT 20SM FEW110 FEW220 06/M00 A3024 RMK AC2CI1 CI TR SLP256
6:00 a. m.
V
45 °F 15 mi - Var 000° 0 kt METAR CYYC 251200Z 00000KT 15SM FEW140 07/M00 A3025 RMK AC1 AC TR SLP257
5:00 a. m.
V
46 °F 15 mi - 330° 330° 6 kt METAR CYYC 251100Z 33006KT 15SM SKC 08/M00 A3024 RMK SLP249
4:00 a. m.
V
41 °F 15 mi - 340° 340° 4 kt METAR CYYC 251000Z 34004KT 15SM SKC 05/M01 A3024 RMK SLP254
3:00 a. m.
V
46 °F 15 mi - 340° 340° 3 kt METAR CYYC 250900Z 34003KT 340V040 15SM SKC 08/M01 A3024 RMK SLP251
2:00 a. m.
V
46 °F 15 mi - 340° 340° 2 kt METAR CYYC 250800Z 34002KT 15SM FEW140 08/M00 A3025 RMK AC1 AC TR SLP254
1:00 a. m.
V
48 °F 15 mi - 360° 360° 5 kt METAR CYYC 250700Z 36005KT 15SM SKC 09/M01 A3024 RMK SLP253
12:00 a. m.
V
50 °F 15 mi - 340° 340° 2 kt METAR CYYC 250600Z 34002KT 15SM SKC 10/M01 A3024 RMK SLP250

24 de septiembre de 2022

Hora Código Tiempo Temp. Visibilidad Cielo nuboso Viento METAR/SPECI
11:00 p. m.
V
54 °F 15 mi - 030° 030° 4 kt METAR CYYC 250500Z 03004KT 15SM SKC 12/M01 A3023 RMK SLP246 DENSITY ALT 3800FT
10:00 p. m.
V
59 °F 15 mi - 310° 310° 10 kt METAR CYYC 250400Z 31010KT 15SM FEW250 15/M01 A3023 RMK CI1 CI TR SLP242 DENSITY ALT 4200FT
9:00 p. m.
V
59 °F 15 mi - 290° 290° 3 kt METAR CYYC 250300Z 29003KT 260V010 15SM FEW230 15/M01 A3020 RMK CI1 CI TR SLP238 DENSITY ALT 4100FT
8:00 p. m.
V
63 °F 40 mi - 290° 290° 7 kt METAR CYYC 250200Z 29007KT 40SM FEW180 FEW230 17/M01 A3019 RMK AC1CI1 AC TR CONTRAILS SLP230 DENSITY ALT 4400FT
7:00 p. m.
V
66 °F 20 mi - 300° 300° 9 kt METAR CYYC 250100Z 30009KT 20SM FEW076 FEW230 19/M02 A3016 RMK AC1CI2 AC TR CONTRAILS SLP218 DENSITY ALT 4700FT
6:00 p. m.
V
70 °F 30 mi 23.000 ft 290° 290° 12 kt METAR CYYC 250000Z 29012KT 30SM FEW076 BKN230 21/M02 A3016 RMK AC1CI5 AC TR CONTRAILS SLP213 DENSITY ALT 4900FT
5:00 p. m.
V
70 °F 30 mi 23.000 ft 280° 280° 6 - 15 kt METAR CYYC 242300Z 28006G15KT 270V330 30SM FEW076 BKN230 21/M03 A3015 RMK AC1CI6 CONTRAILS SLP210 DENSITY ALT 4900FT
4:00 p. m.
V
70 °F 30 mi - 300° 300° 11 kt METAR CYYC 242200Z 30011KT 230V320 30SM FEW076 SCT230 21/M02 A3014 RMK AC1CI3 CONTRAILS SLP206 DENSITY ALT 5000FT
3:00 p. m.
V
70 °F 30 mi - 230° 230° 8 kt METAR CYYC 242100Z 23008KT 210V350 30SM FEW076 SCT230 21/M02 A3014 RMK AC1CI3 SLP207 DENSITY ALT 4900FT
2:00 p. m.
V
68 °F 40 mi - Var Var 3 kt METAR CYYC 242000Z VRB03KT 40SM FEW074 FEW230 20/00 A3014 RMK AC1CI1 CONTRAILS SLP208 DENSITY ALT 4800FT
1:00 p. m.
V
66 °F 40 mi - Var Var 7 - 24 kt METAR CYYC 241900Z VRB07G24KT 40SM FEW070 FEW230 19/00 A3014 RMK AC1CI1 CONTRAILS SLP209 DENSITY ALT 4700FT
12:00 p. m.
V
66 °F 40 mi - 360° 360° 11 - 17 kt METAR CYYC 241800Z 36011G17KT 40SM FEW070 FEW230 19/01 A3013 RMK AC1CI1 AC TR CI TR CONTRAILS SLP208 DENSITY ALT 4700FT
11:22 a. m.
V
64 °F 40 mi - 020° 020° 11 - 16 kt METAR CYYC 241722Z 02011G16KT 330V040 40SM FEW070 FEW100 FEW230 18/02 A3013 RMK AC1AC1CI1 AC TR AC TR CI TR WSHFT 1707 SLP210 DENSITY ALT 4600FT
11:00 a. m.
V
64 °F 40 mi - 340° 340° 13 - 18 kt METAR CYYC 241700Z 34013G18KT 300V360 40SM FEW070 FEW100 FEW230 18/01 A3012 RMK AC1AC1CI1 AC TR AC TR CI TR ACC ASOCTD SLP205 DENSITY ALT 4600FT
10:00 a. m.
V
63 °F 40 mi - 290° 290° 16 kt METAR CYYC 241600Z 29016KT 40SM FEW062 FEW100 FEW230 17/01 A3010 RMK CU1AC1CI1 CU TR AC TR CI TR CONTRAILS SLP199 DENSITY ALT 4500FT
9:00 a. m.
V
57 °F 40 mi - 280° 280° 11 kt METAR CYYC 241500Z 28011KT 40SM FEW054 FEW100 FEW230 14/01 A3007 RMK SC1AC1CI1 SC TR AC TR CI TR CONTRAILS SLP192 DENSITY ALT 4300FT
Datos más antiguos

Nosotros y terceros seguimos tu comportamiento en Internet en nuestro sitio web con cookies. Si continúas, asumimos que estás de acuerdo con nuestra política de cookies. Más información